Notice: Undefined index: station in /home3/dimtiris/public_html/webApp/metar/index.php on line 4

Metar

Weather conditions for all airports of the world. Just type the ICAO code of an airport.

LGAV 020350Z VRB02KT CAVOK 18/12 Q1011 NOSIG

STATION LGAV
OBSERVED Tue Sep 1, 21:50 MDT
NOW Tue Sep 1, 22:19 MDT
AGE 29 min ago
WIND varies at 2 mph
VISIBILITY greater than 7 miles
CONDITIONS
CLOUDS clear skies
TEMP 64°F (18°C)
DEWPT 54°F (12°C)
HUMIDITY 68%
BAROMETER 1011 hPa (29.85 in Hg)

Get weather info from other station:

Some ICAO codes to try: